Time;durP1;ratioP1;P1;durP2;ratioP2;P2;SDS_P1;SDS_P2;PMS_P1;PMS_P2;Temp;Humidity;BMP_temperature;BMP_pressure;BME280_temperature;BME280_humidity;BME280_pressure;Samples;Min_cycle;Max_cycle;Signal;HPM_P1;HPM_P2
2023/06/17 00:00:23;;;;;;;7.85;0.55;;;;;;;16.91;100.00;100291.34;4969409;28;20030;-79
2023/06/17 00:02:49;;;;;;;2.70;0.60;;;;;;;16.88;100.00;100289.06;4973669;28;20140;-79
2023/06/17 00:05:15;;;;;;;4.05;0.70;;;;;;;16.91;100.00;100296.69;4975913;28;20041;-79
2023/06/17 00:07:41;;;;;;;2.30;0.60;;;;;;;16.90;100.00;100286.19;4984279;28;20542;-86
2023/06/17 00:10:08;;;;;;;2.40;0.60;;;;;;;16.86;100.00;100286.59;4978344;28;20488;-84
2023/06/17 00:12:36;;;;;;;0.88;0.63;;;;;;;16.83;100.00;100283.47;4975162;28;20063;-79
2023/06/17 00:15:04;;;;;;;3.20;0.70;;;;;;;16.86;100.00;100285.75;4981215;28;20030;-79
2023/06/17 00:17:30;;;;;;;2.05;0.50;;;;;;;16.87;100.00;100287.38;4974315;28;20042;-79
2023/06/17 00:19:58;;;;;;;1.45;0.73;;;;;;;16.89;100.00;100287.19;4972760;28;20042;-78
2023/06/17 00:22:25;;;;;;;0.88;0.43;;;;;;;16.89;100.00;100288.03;4967487;28;20029;-78
2023/06/17 00:24:53;;;;;;;2.55;0.63;;;;;;;16.92;100.00;100286.81;4984901;28;20121;-79
2023/06/17 00:27:19;;;;;;;2.13;0.73;;;;;;;16.92;100.00;100276.97;4997041;28;20039;-85
2023/06/17 00:29:45;;;;;;;4.22;0.60;;;;;;;16.96;100.00;100278.22;4991578;28;20037;-84
2023/06/17 00:32:14;;;;;;;1.88;0.57;;;;;;;16.95;100.00;100273.09;4964818;28;20022;-80
2023/06/17 00:34:40;;;;;;;1.88;0.55;;;;;;;16.93;100.00;100269.81;4968287;28;21222;-81
2023/06/17 00:37:06;;;;;;;2.05;1.10;;;;;;;16.88;100.00;100258.84;4958051;28;20046;-81
2023/06/17 00:39:32;;;;;;;2.22;1.10;;;;;;;16.85;100.00;100254.75;4961560;28;20146;-80
2023/06/17 00:41:59;;;;;;;1.30;0.70;;;;;;;16.84;100.00;100259.25;4961387;28;20041;-85
2023/06/17 00:44:25;;;;;;;5.13;1.17;;;;;;;16.84;100.00;100255.75;4972199;28;20038;-84
2023/06/17 00:46:53;;;;;;;4.80;1.05;;;;;;;16.88;100.00;100267.72;4963201;28;20026;-80
2023/06/17 00:49:24;;;;;;;3.80;1.38;;;;;;;16.89;100.00;100261.34;4997729;28;20428;-80
2023/06/17 00:51:51;;;;;;;3.58;1.42;;;;;;;16.90;100.00;100257.66;4972225;28;20109;-79
2023/06/17 00:54:17;;;;;;;2.38;1.55;;;;;;;16.88;100.00;100254.34;4982111;28;20129;-79
2023/06/17 00:56:43;;;;;;;2.97;1.30;;;;;;;16.88;100.00;100250.84;4957512;28;20034;-80
2023/06/17 00:59:08;;;;;;;1.80;1.00;;;;;;;16.85;100.00;100250.22;4972126;28;20034;-82
2023/06/17 01:01:37;;;;;;;3.40;1.10;;;;;;;16.85;100.00;100255.53;4962445;28;20042;-79
2023/06/17 01:04:04;;;;;;;4.65;1.10;;;;;;;16.84;100.00;100250.41;4973107;28;20049;-79
2023/06/17 01:06:59;;;;;;;1.10;1.00;;;;;;;16.83;100.00;100244.22;4964597;28;20128;-81
2023/06/17 01:09:32;;;;;;;5.80;1.35;;;;;;;16.80;100.00;100241.94;4965304;28;20026;-81
2023/06/17 01:11:59;;;;;;;3.45;1.10;;;;;;;16.77;100.00;100233.50;4986116;28;20069;-81
2023/06/17 01:14:27;;;;;;;1.73;1.00;;;;;;;16.70;100.00;100222.75;4965583;28;20038;-81
2023/06/17 01:16:54;;;;;;;4.45;1.30;;;;;;;16.67;100.00;100220.47;4991937;28;20477;-80
2023/06/17 01:19:24;;;;;;;1.33;1.10;;;;;;;16.68;100.00;100222.13;5009857;28;20034;-79
2023/06/17 01:21:53;;;;;;;2.72;1.35;;;;;;;16.64;100.00;100224.34;4976210;28;20042;-81
2023/06/17 01:24:27;;;;;;;1.98;1.10;;;;;;;16.62;100.00;100223.72;4980467;28;20057;-80
2023/06/17 01:26:56;;;;;;;2.92;1.20;;;;;;;16.64;100.00;100229.69;4958565;28;20034;-80
2023/06/17 01:29:23;;;;;;;2.13;1.20;;;;;;;16.68;100.00;100232.78;4988791;28;20038;-81
2023/06/17 01:31:50;;;;;;;3.08;1.35;;;;;;;16.70;100.00;100230.78;4977276;28;20081;-80
2023/06/17 01:34:24;;;;;;;4.85;1.10;;;;;;;16.69;100.00;100221.94;4967212;28;20030;-82
2023/06/17 01:36:54;;;;;;;2.95;1.15;;;;;;;16.66;100.00;100235.66;4970337;28;20026;-82
2023/06/17 01:39:25;;;;;;;4.57;1.20;;;;;;;16.66;100.00;100232.97;4989408;28;20046;-81
2023/06/17 01:41:54;;;;;;;3.83;1.33;;;;;;;16.65;100.00;100227.84;4969335;28;20046;-81
2023/06/17 01:44:23;;;;;;;2.25;1.23;;;;;;;16.63;100.00;100230.69;4991090;28;20125;-80
2023/06/17 01:46:49;;;;;;;1.73;1.23;;;;;;;16.61;100.00;100230.06;4967304;28;20069;-79
2023/06/17 01:49:15;;;;;;;2.05;1.20;;;;;;;16.63;100.00;100236.03;4989540;28;20133;-82
2023/06/17 01:51:41;;;;;;;5.20;1.27;;;;;;;16.61;100.00;100236.22;4974178;28;20030;-82
2023/06/17 01:54:07;;;;;;;2.42;1.40;;;;;;;16.59;100.00;100240.09;4982095;28;20073;-80
2023/06/17 01:56:32;;;;;;;2.80;1.63;;;;;;;16.60;100.00;100239.91;4973668;28;20077;-80
2023/06/17 01:58:58;;;;;;;2.08;1.58;;;;;;;16.55;100.00;100228.97;4976188;28;20097;-80
2023/06/17 02:01:24;;;;;;;6.47;1.85;;;;;;;16.51;100.00;100238.38;4972872;28;20125;-80
2023/06/17 02:03:51;;;;;;;3.78;2.10;;;;;;;16.52;100.00;100239.19;4993689;28;20038;-80
2023/06/17 02:06:17;;;;;;;5.63;2.60;;;;;;;16.49;100.00;100237.72;4972693;28;20034;-81
2023/06/17 02:08:44;;;;;;;3.08;2.17;;;;;;;16.46;100.00;100230.94;5010295;28;20100;-82
2023/06/17 02:11:10;;;;;;;2.78;1.92;;;;;;;16.46;100.00;100238.94;4991592;28;20038;-82
2023/06/17 02:13:37;;;;;;;3.67;2.47;;;;;;;16.50;100.00;100236.72;4965441;28;20030;-81
2023/06/17 02:16:03;;;;;;;2.72;2.47;;;;;;;16.52;100.00;100236.53;4991224;28;20037;-80
2023/06/17 02:18:32;;;;;;;3.95;2.72;;;;;;;16.49;100.00;100243.06;4986386;28;20060;-80
2023/06/17 02:21:00;;;;;;;4.15;2.80;;;;;;;16.48;100.00;100228.91;4981802;28;20034;-81
2023/06/17 02:23:26;;;;;;;2.72;2.53;;;;;;;16.46;100.00;100222.94;4979319;28;20261;-80
2023/06/17 02:25:52;;;;;;;8.35;3.58;;;;;;;16.42;100.00;100210.19;4978053;28;20034;-81
2023/06/17 02:28:18;;;;;;;4.50;3.00;;;;;;;16.35;100.00;100204.75;4974787;28;20046;-82
2023/06/17 02:30:44;;;;;;;5.50;3.65;;;;;;;16.38;100.00;100209.72;4956599;28;20034;-82
2023/06/17 02:33:12;;;;;;;4.55;2.65;;;;;;;16.43;100.00;100211.81;4983422;28;20710;-80
2023/06/17 02:35:38;;;;;;;7.03;3.42;;;;;;;16.40;100.00;100207.69;4953359;28;20125;-82
2023/06/17 02:38:04;;;;;;;4.43;4.00;;;;;;;16.35;100.00;100215.44;4972222;28;20505;-82
2023/06/17 02:40:30;;;;;;;6.43;4.35;;;;;;;16.28;100.00;100209.19;4975324;28;20038;-81
2023/06/17 02:42:56;;;;;;;4.43;3.60;;;;;;;16.22;100.00;100206.28;4952914;28;20870;-81
2023/06/17 02:45:21;;;;;;;5.80;4.35;;;;;;;16.18;100.00;100204.16;4951774;28;20031;-83
2023/06/17 02:47:47;;;;;;;11.45;4.30;;;;;;;16.15;100.00;100192.03;4972142;28;20069;-81
2023/06/17 02:50:13;;;;;;;7.57;4.13;;;;;;;16.16;100.00;100184.84;4972968;28;20031;-82
2023/06/17 02:52:39;;;;;;;3.55;2.63;;;;;;;16.10;100.00;100175.78;4975230;28;20496;-82
2023/06/17 02:55:06;;;;;;;2.78;2.40;;;;;;;16.09;100.00;100185.59;4971271;28;20497;-82
2023/06/17 02:57:32;;;;;;;3.17;2.90;;;;;;;16.06;100.00;100180.66;5005084;28;20039;-81
2023/06/17 02:59:58;;;;;;;5.03;3.55;;;;;;;16.07;100.00;100176.16;4991042;28;20053;-81
2023/06/17 03:02:24;;;;;;;4.18;3.78;;;;;;;16.07;100.00;100163.63;4987991;28;20037;-80
2023/06/17 03:04:53;;;;;;;4.53;4.15;;;;;;;16.10;100.00;100163.25;4993887;28;20065;-80
2023/06/17 03:07:21;;;;;;;4.57;3.72;;;;;;;16.10;100.00;100171.25;4979147;28;20034;-81
2023/06/17 03:09:47;;;;;;;5.38;3.17;;;;;;;16.18;100.00;100170.31;4982235;28;20473;-80
2023/06/17 03:12:13;;;;;;;4.68;3.60;;;;;;;16.20;100.00;100164.78;4980135;28;20045;-82
2023/06/17 03:14:39;;;;;;;3.53;3.17;;;;;;;16.19;100.00;100161.31;4987885;28;20097;-82
2023/06/17 03:17:10;;;;;;;4.10;2.80;;;;;;;16.26;100.00;100163.22;4972838;28;20038;-80
2023/06/17 03:19:37;;;;;;;3.53;3.15;;;;;;;16.25;100.00;100165.06;4953329;28;20034;-80
2023/06/17 03:22:03;;;;;;;8.02;3.20;;;;;;;16.30;100.00;100170.66;4959826;28;20042;-81
2023/06/17 03:24:33;;;;;;;2.92;2.72;;;;;;;16.33;100.00;100174.78;4994107;28;20495;-80
2023/06/17 03:26:58;;;;;;;3.08;2.60;;;;;;;16.34;100.00;100174.59;4986711;28;20038;-80
2023/06/17 03:29:24;;;;;;;3.35;2.40;;;;;;;16.34;100.00;100171.13;4974376;28;20038;-80
2023/06/17 03:31:56;;;;;;;2.85;2.50;;;;;;;16.35;100.00;100164.75;4971300;28;20512;-81
2023/06/17 03:34:24;;;;;;;4.90;2.60;;;;;;;16.37;100.00;100163.53;4974517;28;20026;-81
2023/06/17 03:36:50;;;;;;;2.53;2.30;;;;;;;16.43;100.00;100171.81;4986956;28;20568;-81
2023/06/17 03:39:16;;;;;;;4.40;2.17;;;;;;;16.44;100.00;100168.94;4968171;28;20169;-81
2023/06/17 03:41:42;;;;;;;4.20;2.00;;;;;;;16.44;100.00;100163.63;4970701;28;20109;-81
2023/06/17 03:44:08;;;;;;;1.85;1.52;;;;;;;16.46;100.00;100155.41;4987639;28;20488;-80
2023/06/17 03:46:34;;;;;;;3.42;1.50;;;;;;;16.46;100.00;100145.59;4983599;28;20062;-80
2023/06/17 03:49:02;;;;;;;2.35;1.48;;;;;;;16.47;100.00;100146.38;4980940;28;20397;-80
2023/06/17 03:51:28;;;;;;;2.55;1.65;;;;;;;16.52;100.00;100145.81;4985100;28;20113;-81
2023/06/17 03:53:54;;;;;;;2.17;1.55;;;;;;;16.55;100.00;100140.09;4972664;28;20460;-80
2023/06/17 03:56:21;;;;;;;2.17;1.98;;;;;;;16.58;100.00;100147.75;4968849;28;20031;-81
2023/06/17 03:58:47;;;;;;;2.05;1.63;;;;;;;16.60;100.00;100151.03;4935100;28;20362;-80
2023/06/17 04:01:14;;;;;;;1.70;1.60;;;;;;;16.60;100.00;100146.53;4940829;28;20038;-81
2023/06/17 04:03:41;;;;;;;2.35;1.83;;;;;;;16.59;100.00;100142.22;4935299;28;20034;-81
2023/06/17 04:06:08;;;;;;;1.40;1.30;;;;;;;16.56;100.00;100147.09;4991376;28;20047;-81
2023/06/17 04:08:35;;;;;;;1.52;1.40;;;;;;;16.55;100.00;100142.75;4968367;28;20062;-80
2023/06/17 04:11:02;;;;;;;3.15;1.60;;;;;;;16.54;100.00;100146.47;4990142;28;20077;-81
2023/06/17 04:13:28;;;;;;;1.50;1.40;;;;;;;16.51;100.00;100136.16;4964425;28;20030;-81
2023/06/17 04:15:54;;;;;;;3.17;1.50;;;;;;;16.51;100.00;100125.50;4953785;28;20041;-80
2023/06/17 04:18:20;;;;;;;2.65;1.20;;;;;;;16.50;100.00;100124.66;4959886;28;20034;-81
2023/06/17 04:20:46;;;;;;;1.30;1.20;;;;;;;16.49;100.00;100129.19;4951710;28;20405;-81
2023/06/17 04:23:12;;;;;;;2.15;1.40;;;;;;;16.52;100.00;100116.47;4973172;28;20034;-81
2023/06/17 04:25:38;;;;;;;1.65;1.55;;;;;;;16.52;100.00;100108.47;4957040;28;20026;-81
2023/06/17 04:28:07;;;;;;;1.85;1.30;;;;;;;16.52;100.00;100114.63;4956807;28;20037;-81
2023/06/17 04:30:37;;;;;;;1.20;1.10;;;;;;;16.50;100.00;100108.66;4960831;28;20037;-80
2023/06/17 04:33:03;;;;;;;1.88;1.10;;;;;;;16.47;100.00;100101.88;4957048;28;20030;-81
2023/06/17 04:35:29;;;;;;;1.08;1.00;;;;;;;16.49;100.00;100105.19;4972592;28;20546;-81
2023/06/17 04:37:58;;;;;;;1.20;1.10;;;;;;;16.47;100.00;100106.38;4951192;28;20114;-80
2023/06/17 04:40:25;;;;;;;1.20;1.13;;;;;;;16.46;100.00;100110.91;4969003;28;20500;-81
2023/06/17 04:42:51;;;;;;;0.85;0.85;;;;;;;16.44;100.00;100109.44;4950316;28;20046;-81
2023/06/17 04:45:18;;;;;;;1.48;1.13;;;;;;;16.41;100.00;100113.31;4970629;28;20034;-81
2023/06/17 04:47:48;;;;;;;1.85;0.90;;;;;;;16.41;100.00;100105.31;4950219;28;20185;-81
2023/06/17 04:50:17;;;;;;;2.05;1.00;;;;;;;16.41;100.00;100113.31;4970875;28;20030;-81
2023/06/17 04:52:51;;;;;;;2.83;1.67;;;;;;;16.40;100.00;100122.34;4985161;28;20034;-80
2023/06/17 04:55:18;;;;;;;1.35;0.90;;;;;;;16.39;100.00;100119.88;4955880;28;20126;-80
2023/06/17 04:57:45;;;;;;;4.25;0.90;;;;;;;16.42;100.00;100122.97;4980290;28;20049;-80
2023/06/17 05:00:13;;;;;;;1.17;1.05;;;;;;;16.45;100.00;100127.91;4933822;28;20041;-81
2023/06/17 05:02:40;;;;;;;1.20;1.10;;;;;;;16.44;100.00;100123.59;4953474;28;20058;-81
2023/06/17 05:05:07;;;;;;;1.20;1.10;;;;;;;16.44;100.00;100131.59;4967177;28;20539;-80
2023/06/17 05:07:34;;;;;;;5.63;1.23;;;;;;;16.44;100.00;100123.59;4977374;28;20040;-82
2023/06/17 05:10:01;;;;;;;1.13;0.90;;;;;;;16.44;100.00;100117.44;4949260;28;20034;-81
2023/06/17 05:12:27;;;;;;;0.85;0.85;;;;;;;16.44;100.00;100117.44;4982508;28;20030;-80
2023/06/17 05:14:53;;;;;;;1.27;0.90;;;;;;;16.40;100.00;100119.69;4970842;28;20160;-81
2023/06/17 05:17:19;;;;;;;3.28;0.90;;;;;;;16.38;100.00;100108.38;4980699;28;20037;-80
2023/06/17 05:19:45;;;;;;;0.68;0.60;;;;;;;16.38;100.00;100116.38;4968355;28;20542;-80
2023/06/17 05:22:11;;;;;;;2.20;0.70;;;;;;;16.37;100.00;100118.19;4969699;28;20400;-81
2023/06/17 05:24:37;;;;;;;0.50;0.50;;;;;;;16.37;100.00;100115.53;4948934;28;20030;-80
2023/06/17 05:27:03;;;;;;;3.17;0.47;;;;;;;16.35;100.00;100111.41;4952691;28;20073;-80
2023/06/17 05:29:29;;;;;;;0.43;0.40;;;;;;;16.32;100.00;100117.13;4969436;28;20042;-80
2023/06/17 05:31:57;;;;;;;5.10;0.43;;;;;;;16.30;100.00;100127.16;4970306;28;20034;-82
2023/06/17 05:34:23;;;;;;;3.80;0.68;;;;;;;16.29;100.00;100123.69;4961248;28;20093;-85
2023/06/17 05:36:48;;;;;;;2.08;0.70;;;;;;;16.23;100.00;100119.91;4945092;28;20034;-80
2023/06/17 05:39:15;;;;;;;1.23;0.75;;;;;;;16.19;100.00;100131.16;4949801;28;20040;-80
2023/06/17 05:41:41;;;;;;;1.85;0.73;;;;;;;16.19;100.00;100113.31;4959094;28;20378;-80
2023/06/17 05:44:07;;;;;;;0.68;0.50;;;;;;;16.17;100.00;100110.00;4938109;28;20562;-83
2023/06/17 05:46:33;;;;;;;1.85;0.70;;;;;;;16.19;100.00;100107.16;4947786;28;20035;-83
2023/06/17 05:48:59;;;;;;;1.63;0.95;;;;;;;16.23;100.00;100106.59;4954430;28;20121;-80
2023/06/17 05:51:28;;;;;;;5.03;0.75;;;;;;;16.28;100.00;100102.50;4996491;28;20126;-80
2023/06/17 05:53:55;;;;;;;3.00;0.90;;;;;;;16.29;100.00;100106.84;4972585;28;20444;-79
2023/06/17 05:56:21;;;;;;;1.38;1.05;;;;;;;16.30;100.00;100113.81;4989511;28;20077;-80
2023/06/17 05:58:47;;;;;;;1.15;1.05;;;;;;;16.32;100.00;100111.78;5003559;28;20105;-81
2023/06/17 06:01:21;;;;;;;3.50;1.10;;;;;;;16.33;100.00;100113.44;4973238;28;20547;-80
2023/06/17 06:03:48;;;;;;;0.85;0.60;;;;;;;16.31;100.00;100110.16;4963011;28;20161;-80
2023/06/17 06:06:13;;;;;;;1.95;0.80;;;;;;;16.31;100.00;100113.63;4993166;28;20034;-80
2023/06/17 06:08:39;;;;;;;1.17;0.68;;;;;;;16.27;100.00;100115.03;4963750;28;20041;-79
2023/06/17 06:11:05;;;;;;;1.63;0.45;;;;;;;16.23;100.00;100121.75;4999028;28;20034;-80
2023/06/17 06:13:31;;;;;;;1.27;0.57;;;;;;;16.18;100.00;100127.66;4974791;28;20040;-81
2023/06/17 06:15:57;;;;;;;0.75;0.50;;;;;;;16.20;100.00;100125.63;4984700;28;20045;-80
2023/06/17 06:18:23;;;;;;;0.93;0.60;;;;;;;16.16;100.00;100128.88;4983360;28;20057;-82
2023/06/17 06:20:50;;;;;;;6.28;0.55;;;;;;;16.16;100.00;100128.88;4979735;28;20029;-81
2023/06/17 06:23:17;;;;;;;1.92;0.40;;;;;;;16.20;100.00;100128.28;4994514;28;20048;-80
2023/06/17 06:25:43;;;;;;;1.65;0.35;;;;;;;16.21;100.00;100124.59;4989553;28;20030;-81
2023/06/17 06:28:09;;;;;;;0.75;0.30;;;;;;;16.19;100.00;100123.16;4992449;28;20087;-80
2023/06/17 06:30:35;;;;;;;1.23;0.30;;;;;;;16.15;100.00;100119.22;4993602;28;20395;-81
2023/06/17 06:33:01;;;;;;;0.20;0.20;;;;;;;16.12;100.00;100126.56;4975738;28;20041;-81
2023/06/17 06:35:28;;;;;;;1.27;0.30;;;;;;;16.07;100.00;100120.97;4977288;28;20026;-80
2023/06/17 06:37:54;;;;;;;0.70;0.30;;;;;;;16.02;100.00;100126.06;4961823;28;20033;-80
2023/06/17 06:40:20;;;;;;;0.55;0.30;;;;;;;15.96;100.00;100116.94;4978166;28;20045;-81
2023/06/17 06:42:46;;;;;;;0.95;0.40;;;;;;;15.94;100.00;100126.94;4978315;28;20068;-81
2023/06/17 06:45:19;;;;;;;0.55;0.38;;;;;;;15.97;100.00;100133.75;4977996;28;20489;-81
2023/06/17 06:47:45;;;;;;;0.80;0.50;;;;;;;16.02;100.00;100141.22;4975126;28;20034;-81
2023/06/17 06:50:11;;;;;;;0.90;0.50;;;;;;;16.02;100.00;100136.72;4997291;28;20499;-81
2023/06/17 06:52:37;;;;;;;0.88;0.60;;;;;;;16.02;100.00;100131.41;4991960;28;20041;-80
2023/06/17 06:55:03;;;;;;;4.43;0.80;;;;;;;16.02;100.00;100131.41;4973866;28;20041;-80
2023/06/17 06:57:30;;;;;;;0.93;0.80;;;;;;;15.99;100.00;100134.41;4990517;28;20034;-82
2023/06/17 06:59:56;;;;;;;4.70;0.85;;;;;;;15.97;100.00;100134.59;4990876;28;20092;-82
2023/06/17 07:02:22;;;;;;;2.95;0.77;;;;;;;15.94;100.00;100150.94;4986115;28;20108;-81
2023/06/17 07:04:48;;;;;;;3.15;0.88;;;;;;;15.92;100.00;100145.00;4990005;28;20064;-80
2023/06/17 07:07:16;;;;;;;1.20;1.00;;;;;;;15.92;100.00;100152.16;4979181;28;20123;-81
2023/06/17 07:09:42;;;;;;;1.40;1.30;;;;;;;15.87;100.00;100145.56;4960132;28;20064;-80
2023/06/17 07:12:10;;;;;;;2.95;1.30;;;;;;;15.87;100.00;100147.38;4963838;28;20030;-80
2023/06/17 07:14:37;;;;;;;2.25;1.30;;;;;;;15.82;100.00;100141.78;4984330;28;20392;-81
2023/06/17 07:17:04;;;;;;;1.70;1.48;;;;;;;15.78;100.00;100146.69;4992455;28;20034;-82
2023/06/17 07:19:30;;;;;;;1.33;1.23;;;;;;;15.71;100.00;100146.59;4963436;28;20030;-82
2023/06/17 07:21:57;;;;;;;2.10;1.50;;;;;;;15.72;100.00;100144.72;4978308;28;20034;-80
2023/06/17 07:24:23;;;;;;;1.40;1.30;;;;;;;15.73;100.00;100146.41;4984156;28;20061;-81
2023/06/17 07:26:49;;;;;;;1.30;1.20;;;;;;;15.70;100.00;100141.44;4991990;28;20061;-81
2023/06/17 07:29:15;;;;;;;1.75;1.10;;;;;;;15.66;100.00;100146.31;4996153;28;20054;-81
2023/06/17 07:31:41;;;;;;;1.30;1.20;;;;;;;15.66;100.00;100133.00;4976718;28;20116;-81
2023/06/17 07:34:07;;;;;;;1.67;1.50;;;;;;;15.59;100.00;100132.91;4974987;28;20136;-80
2023/06/17 07:36:33;;;;;;;1.25;1.20;;;;;;;15.55;100.00;100123.63;4998274;28;20126;-79
2023/06/17 07:38:59;;;;;;;1.40;1.30;;;;;;;15.55;100.00;100114.81;4971781;28;20396;-80
2023/06/17 07:41:26;;;;;;;1.88;1.77;;;;;;;15.43;100.00;100101.94;4978078;28;20037;-80
2023/06/17 07:43:52;;;;;;;3.35;1.70;;;;;;;15.43;100.00;100117.94;4953074;28;20034;-80
2023/06/17 07:46:18;;;;;;;4.57;1.70;;;;;;;15.35;100.00;100110.88;4986746;28;20120;-79
2023/06/17 07:48:44;;;;;;;1.65;1.55;;;;;;;15.35;100.00;100099.41;4977845;28;20030;-80
2023/06/17 07:51:09;;;;;;;2.85;1.55;;;;;;;15.31;100.00;100101.59;4996373;28;20030;-79
2023/06/17 07:53:35;;;;;;;1.60;1.50;;;;;;;15.29;100.00;100100.16;4972383;28;20409;-80
2023/06/17 07:56:01;;;;;;;3.38;1.50;;;;;;;15.28;100.00;100101.16;4987306;28;20042;-81
2023/06/17 07:58:27;;;;;;;1.40;1.30;;;;;;;15.30;100.00;100109.78;4966209;28;20053;-80
2023/06/17 08:00:53;;;;;;;1.20;1.20;;;;;;;15.33;100.00;100109.41;4972119;28;20065;-80
2023/06/17 08:03:19;;;;;;;1.20;1.10;;;;;;;15.31;100.00;100096.28;4973289;28;20030;-80
2023/06/17 08:05:44;;;;;;;1.38;1.27;;;;;;;15.30;100.00;100107.13;4973814;28;20041;-79
2023/06/17 08:08:10;;;;;;;1.45;0.82;;;;;;;15.32;100.00;100110.44;4968022;28;20041;-79
2023/06/17 08:10:36;;;;;;;0.95;0.95;;;;;;;15.35;100.00;100118.06;4955940;28;20045;-79
2023/06/17 08:13:01;;;;;;;2.25;0.85;;;;;;;15.38;100.00;100120.34;4973253;28;20113;-80
2023/06/17 08:15:27;;;;;;;0.95;0.80;;;;;;;15.47;100.00;100124.56;4989007;28;20053;-81
2023/06/17 08:17:53;;;;;;;1.23;0.80;;;;;;;15.60;100.00;100133.72;4972148;28;20038;-81
2023/06/17 08:20:21;;;;;;;0.70;0.60;;;;;;;15.73;100.00;100135.75;4993076;28;20034;-81
2023/06/17 08:22:47;;;;;;;0.82;0.65;;;;;;;15.82;100.00;100147.94;4978383;28;20038;-81
2023/06/17 08:25:13;;;;;;;1.48;0.77;;;;;;;15.88;100.00;100152.53;4972832;28;20147;-80
2023/06/17 08:27:42;;;;;;;0.50;0.50;;;;;;;15.93;100.00;100154.63;4954704;28;20050;-81
2023/06/17 08:30:08;;;;;;;0.70;0.70;;;;;;;15.98;100.00;100156.75;4957727;28;20094;-81
2023/06/17 08:32:34;;;;;;;2.70;0.60;;;;;;;16.04;100.00;100160.53;4983314;28;20484;-80
2023/06/17 08:35:05;;;;;;;1.23;0.73;;;;;;;16.08;100.00;100153.81;4980187;28;20034;-81
2023/06/17 08:37:31;;;;;;;1.00;0.77;;;;;;;16.05;100.00;100148.84;4983317;28;20042;-80
2023/06/17 08:39:57;;;;;;;0.40;0.40;;;;;;;16.04;100.00;100155.22;4980168;28;20038;-80
2023/06/17 08:42:22;;;;;;;0.30;0.30;;;;;;;16.09;100.00;100158.94;4950351;28;20037;-80
2023/06/17 08:44:50;;;;;;;0.50;0.28;;;;;;;16.19;100.00;100168.47;4989213;28;20073;-80
2023/06/17 08:47:16;;;;;;;0.40;0.40;;;;;;;16.28;100.00;100163.84;4989401;28;20035;-81
2023/06/17 08:49:46;;;;;;;0.40;0.30;;;;;;;16.49;100.00;100160.38;4955797;28;20027;-82
2023/06/17 08:52:15;;;;;;;1.58;0.30;;;;;;;16.56;100.00;100163.13;4958003;28;20432;-82
2023/06/17 08:54:42;;;;;;;0.20;0.20;;;;;;;16.65;100.00;100164.63;4974073;28;20117;-83
2023/06/17 08:57:12;;;;;;;1.88;0.30;;;;;;;16.72;100.00;100156.69;4983517;28;20034;-82
2023/06/17 08:59:41;;;;;;;1.00;0.30;;;;;;;16.72;100.00;100157.50;4969709;28;20058;-82
2023/06/17 09:02:10;;;;;;;1.05;0.40;;;;;;;16.71;100.00;100150.50;4969604;28;20133;-82
2023/06/17 09:04:36;;;;;;;1.58;0.68;;;;;;;16.70;100.00;100148.03;4968460;28;20039;-83
2023/06/17 09:07:02;;;;;;;1.17;0.47;;;;;;;16.66;100.00;100155.59;4952897;28;20041;-82
2023/06/17 09:09:28;;;;;;;1.23;0.45;;;;;;;16.64;100.00;100146.16;4954000;28;20562;-81
2023/06/17 09:11:54;;;;;;;1.02;0.38;;;;;;;16.60;100.00;100149.19;4970220;28;20023;-83
2023/06/17 09:14:25;;;;;;;0.60;0.50;;;;;;;16.69;100.00;100149.06;4940738;28;20030;-84
2023/06/17 09:16:51;;;;;;;2.38;0.40;;;;;;;16.73;100.00;100145.81;4941939;28;20054;-82
2023/06/17 09:19:17;;;;;;;3.25;0.60;;;;;;;16.81;100.00;100144.84;4983051;28;20617;-80
2023/06/17 09:21:46;;;;;;;0.65;0.43;;;;;;;16.95;100.00;100136.94;4954713;28;20042;-83
2023/06/17 09:24:12;;;;;;;0.55;0.40;;;;;;;17.04;100.00;100133.09;4973913;28;20085;-81
2023/06/17 09:26:42;;;;;;;0.52;0.52;;;;;;;17.17;100.00;100126.25;4946822;28;20049;-83
2023/06/17 09:29:10;;;;;;;0.45;0.45;;;;;;;17.32;100.00;100126.94;4969001;28;20041;-82
2023/06/17 09:31:51;;;;;;;0.80;0.80;;;;;;;17.40;100.00;100123.28;4957610;28;20042;-81
2023/06/17 09:34:17;;;;;;;11.30;0.90;;;;;;;17.44;100.00;100127.19;4981112;28;20038;-81
2023/06/17 09:36:44;;;;;;;1.52;0.90;;;;;;;17.55;100.00;100120.47;4978398;28;20501;-84
2023/06/17 09:39:11;;;;;;;2.38;0.80;;;;;;;17.57;100.00;100122.94;4967491;28;20026;-82
2023/06/17 09:41:39;;;;;;;1.35;1.20;;;;;;;17.54;100.00;100121.50;4946486;28;20026;-82
2023/06/17 09:44:06;;;;;;;1.40;1.30;;;;;;;17.60;100.00;100122.53;4988142;28;20044;-82
2023/06/17 09:46:37;;;;;;;1.50;1.40;;;;;;;17.68;100.00;100118.88;4976564;28;20362;-81
2023/06/17 09:49:11;;;;;;;1.77;1.38;;;;;;;17.86;100.00;100115.66;4957774;28;20038;-79
2023/06/17 09:51:39;;;;;;;2.60;1.52;;;;;;;17.88;100.00;100104.75;4974435;28;20045;-81
2023/06/17 09:54:06;;;;;;;1.50;1.40;;;;;;;17.84;100.00;100102.50;4992071;28;20499;-84
2023/06/17 09:56:33;;;;;;;1.90;1.70;;;;;;;17.85;100.00;100101.44;4989230;28;20113;-80
2023/06/17 09:59:07;;;;;;;3.75;1.25;;;;;;;17.82;100.00;100103.72;4963945;28;20046;-81
2023/06/17 10:01:38;;;;;;;1.83;1.70;;;;;;;17.80;100.00;100100.41;4994894;28;20034;-80
2023/06/17 10:04:05;;;;;;;1.67;1.17;;;;;;;17.89;100.00;100093.88;5013244;28;20100;-80
2023/06/17 10:06:35;;;;;;;1.92;1.50;;;;;;;17.88;100.00;100097.56;5014832;28;20034;-81
2023/06/17 10:09:08;;;;;;;2.20;1.52;;;;;;;17.94;100.00;100098.59;4971803;28;20081;-81
2023/06/17 10:11:35;;;;;;;3.50;1.20;;;;;;;17.88;100.00;100094.91;5000545;28;20516;-80
2023/06/17 10:14:11;;;;;;;1.33;1.05;;;;;;;17.98;100.00;100100.66;4973518;28;20112;-81
2023/06/17 10:16:43;;;;;;;1.20;1.10;;;;;;;18.08;100.00;100097.63;4991457;28;20061;-81
2023/06/17 10:19:11;;;;;;;1.33;1.20;;;;;;;18.14;100.00;100101.34;4996495;28;20165;-82
2023/06/17 10:21:40;;;;;;;1.40;1.30;;;;;;;18.05;100.00;100089.16;4994305;28;20034;-82
2023/06/17 10:24:08;;;;;;;1.17;1.10;;;;;;;17.91;100.00;100096.34;4995731;28;20048;-80
2023/06/17 10:26:34;;;;;;;1.30;1.20;;;;;;;17.93;100.00;100091.63;4988944;28;20030;-80
2023/06/17 10:29:10;;;;;;;1.48;1.40;;;;;;;17.98;100.00;100092.66;4984689;28;20034;-80
2023/06/17 10:31:40;;;;;;;2.60;1.70;;;;;;;17.95;100.00;100087.72;4981617;28;20499;-80
2023/06/17 10:34:20;;;;;;;1.80;1.70;;;;;;;18.03;100.00;100088.56;4986217;28;20045;-81
2023/06/17 10:37:00;;;;;;;3.20;1.58;;;;;;;18.05;100.00;100091.84;4990558;28;20034;-80
2023/06/17 10:39:26;;;;;;;1.70;1.60;;;;;;;18.03;100.00;100089.38;4985210;28;20054;-81
2023/06/17 10:41:59;;;;;;;1.98;1.52;;;;;;;18.02;100.00;100079.69;4983147;28;20072;-80
2023/06/17 10:44:34;;;;;;;1.58;1.45;;;;;;;18.03;100.00;100073.31;4977852;28;20045;-80
2023/06/17 10:47:02;;;;;;;1.75;1.65;;;;;;;18.15;100.00;100073.59;4985831;28;20496;-81
2023/06/17 10:49:41;;;;;;;1.75;1.65;;;;;;;18.21;100.00;100069.25;5018756;28;20033;-80
2023/06/17 10:52:15;;;;;;;3.85;2.85;;;;;;;18.27;100.00;100068.44;4991222;28;20468;-81
2023/06/17 10:54:54;;;;;;;1.70;1.60;;;;;;;18.28;100.00;100069.28;4960925;28;20133;-81
2023/06/17 10:57:35;;;;;;;1.73;1.10;;;;;;;18.25;100.00;100065.13;4987189;28;20068;-82
2023/06/17 11:00:13;;;;;;;1.65;1.55;;;;;;;18.18;100.00;100065.16;4979051;28;20035;-80
2023/06/17 11:02:40;;;;;;;1.75;1.65;;;;;;;18.11;100.00;100064.28;4983942;28;20061;-80
2023/06/17 11:05:06;;;;;;;3.38;1.75;;;;;;;18.24;100.00;100060.81;4988375;28;20034;-80
2023/06/17 11:07:33;;;;;;;1.90;1.70;;;;;;;18.38;100.00;100064.31;4994748;28;20036;-81
2023/06/17 11:09:59;;;;;;;1.80;1.70;;;;;;;18.51;100.00;100065.34;4970780;28;20504;-81
2023/06/17 11:12:25;;;;;;;5.10;2.10;;;;;;;18.57;100.00;100060.00;4985061;28;20078;-81
2023/06/17 11:14:51;;;;;;;1.63;1.52;;;;;;;18.65;100.00;100048.25;4981397;28;20445;-82
2023/06/17 11:17:16;;;;;;;1.77;1.52;;;;;;;18.84;100.00;100049.25;4998372;28;20045;-81